createdAt,value
2019-01-27T00:00:27.724Z,4.60
2019-01-27T00:02:56.554Z,4.60
2019-01-27T00:05:26.144Z,4.50
2019-01-27T00:08:13.315Z,4.60
2019-01-27T00:10:36.276Z,4.60
2019-01-27T00:13:05.112Z,4.60
2019-01-27T00:15:33.977Z,4.60
2019-01-27T00:18:02.857Z,4.60
2019-01-27T00:20:31.654Z,4.70
2019-01-27T00:23:00.508Z,4.70
2019-01-27T00:25:29.342Z,4.60
2019-01-27T00:27:58.193Z,4.70
2019-01-27T00:30:27.026Z,4.70
2019-01-27T00:32:55.882Z,4.70
2019-01-27T00:35:24.720Z,4.60
2019-01-27T00:37:53.603Z,4.60
2019-01-27T00:40:22.429Z,4.60
2019-01-27T00:42:51.285Z,4.60
2019-01-27T00:45:20.120Z,4.60
2019-01-27T00:47:48.966Z,4.60
2019-01-27T00:50:17.807Z,4.60
2019-01-27T00:52:46.639Z,4.70
2019-01-27T00:55:16.341Z,4.60
2019-01-27T00:57:45.178Z,4.70
2019-01-27T01:00:14.978Z,4.70
2019-01-27T01:02:43.816Z,4.70
2019-01-27T01:05:13.402Z,4.70
2019-01-27T01:07:42.233Z,4.70
2019-01-27T01:10:11.065Z,4.80
2019-01-27T01:12:39.911Z,4.80
2019-01-27T01:15:08.755Z,4.80
2019-01-27T01:17:37.599Z,4.80
2019-01-27T01:20:09.132Z,4.80
2019-01-27T01:22:37.983Z,4.80
2019-01-27T01:25:06.869Z,4.90
2019-01-27T01:27:35.670Z,4.90
2019-01-27T01:30:04.555Z,4.80
2019-01-27T01:32:33.363Z,4.90
2019-01-27T01:35:02.994Z,4.90
2019-01-27T01:37:31.811Z,5.00
2019-01-27T01:40:00.641Z,5.00
2019-01-27T01:42:29.480Z,5.00
2019-01-27T01:44:58.315Z,5.00
2019-01-27T01:47:27.147Z,5.00
2019-01-27T01:49:55.986Z,5.00
2019-01-27T01:52:24.819Z,5.00
2019-01-27T01:54:53.671Z,5.00
2019-01-27T01:57:22.535Z,5.00
2019-01-27T01:59:51.350Z,5.00
2019-01-27T02:02:20.181Z,5.00
2019-01-27T02:04:49.031Z,5.00
2019-01-27T02:07:18.601Z,5.00
2019-01-27T02:09:47.479Z,5.00
2019-01-27T02:12:16.285Z,5.00
2019-01-27T02:14:45.123Z,5.00
2019-01-27T02:17:13.996Z,5.00
2019-01-27T02:19:42.887Z,5.00
2019-01-27T02:22:11.685Z,5.00
2019-01-27T02:24:40.515Z,5.00
2019-01-27T02:27:09.359Z,5.10
2019-01-27T02:29:38.196Z,5.00
2019-01-27T02:32:07.041Z,5.10
2019-01-27T02:34:35.888Z,5.10
2019-01-27T02:37:04.736Z,5.10
2019-01-27T02:39:33.583Z,5.10
2019-01-27T02:42:02.423Z,5.10
2019-01-27T02:44:31.271Z,5.10
2019-01-27T02:47:00.846Z,5.10
2019-01-27T02:49:29.701Z,5.10
2019-01-27T02:51:58.522Z,5.10
2019-01-27T02:54:27.363Z,5.10
2019-01-27T02:56:56.204Z,5.20
2019-01-27T02:59:25.041Z,5.20
2019-01-27T03:01:53.881Z,5.20
2019-01-27T03:04:22.738Z,5.30
2019-01-27T03:06:52.365Z,5.30
2019-01-27T03:09:21.201Z,5.30
2019-01-27T03:11:50.012Z,5.30
2019-01-27T03:14:18.858Z,5.30
2019-01-27T03:16:47.697Z,5.30
2019-01-27T03:19:16.536Z,5.30
2019-01-27T03:21:45.372Z,5.30
2019-01-27T03:24:14.209Z,5.30
2019-01-27T03:26:43.050Z,5.30
2019-01-27T03:29:11.927Z,5.20
2019-01-27T03:31:40.781Z,5.30
2019-01-27T03:34:09.583Z,5.30
2019-01-27T03:36:38.430Z,5.30
2019-01-27T03:39:07.287Z,5.40
2019-01-27T03:41:36.171Z,5.40
2019-01-27T03:44:05.000Z,5.40
2019-01-27T03:46:33.885Z,5.40
2019-01-27T03:49:02.683Z,5.40
2019-01-27T03:51:31.527Z,5.40
2019-01-27T03:54:00.367Z,5.40
2019-01-27T03:56:29.227Z,5.40
2019-01-27T03:58:58.074Z,5.40
2019-01-27T04:01:26.947Z,5.40
2019-01-27T04:03:55.787Z,5.40
2019-01-27T04:06:24.629Z,5.40
2019-01-27T04:08:53.481Z,5.30
2019-01-27T04:11:22.332Z,5.30
2019-01-27T04:13:51.179Z,5.30
2019-01-27T04:16:20.032Z,5.30
2019-01-27T04:18:48.870Z,5.20
2019-01-27T04:21:17.711Z,5.20
2019-01-27T04:23:46.545Z,5.20
2019-01-27T04:26:15.379Z,5.20
2019-01-27T04:28:44.219Z,5.10
2019-01-27T04:31:13.059Z,5.10
2019-01-27T04:33:41.939Z,5.10
2019-01-27T04:36:10.751Z,5.10
2019-01-27T04:38:39.601Z,5.10
2019-01-27T04:41:08.457Z,5.10
2019-01-27T04:43:37.305Z,5.10
2019-01-27T04:46:06.137Z,5.10
2019-01-27T04:48:34.981Z,5.10
2019-01-27T04:51:03.834Z,5.10
2019-01-27T04:53:32.710Z,5.10
2019-01-27T04:56:01.787Z,5.10
2019-01-27T04:58:30.376Z,5.00
2019-01-27T05:00:59.199Z,5.10
2019-01-27T05:03:28.914Z,5.10
2019-01-27T05:05:57.770Z,5.10
2019-01-27T05:08:26.599Z,5.10
2019-01-27T05:10:55.449Z,5.10
2019-01-27T05:13:24.285Z,5.10
2019-01-27T05:15:53.164Z,5.00
2019-01-27T05:18:21.964Z,5.00
2019-01-27T05:20:50.805Z,5.00
2019-01-27T05:23:19.645Z,5.00
2019-01-27T05:25:48.490Z,5.00
2019-01-27T05:28:17.335Z,5.00
2019-01-27T05:30:46.182Z,4.90
2019-01-27T05:33:15.047Z,5.00
2019-01-27T05:35:43.855Z,4.90
2019-01-27T05:38:12.700Z,5.00
2019-01-27T05:40:41.539Z,5.00
2019-01-27T05:43:10.390Z,5.00
2019-01-27T05:45:39.214Z,5.00
2019-01-27T05:48:08.063Z,4.90
2019-01-27T05:50:36.903Z,5.00
2019-01-27T05:53:06.475Z,5.00
2019-01-27T05:55:35.308Z,5.00
2019-01-27T05:58:04.929Z,5.00
2019-01-27T06:00:35.705Z,5.00
2019-01-27T06:03:04.521Z,5.00
2019-01-27T06:05:33.357Z,5.00
2019-01-27T06:08:02.185Z,5.00
2019-01-27T06:10:31.039Z,5.00
2019-01-27T06:12:59.882Z,5.00
2019-01-27T06:15:28.728Z,5.00
2019-01-27T06:17:57.579Z,5.00
2019-01-27T06:20:26.419Z,5.00
2019-01-27T06:22:55.257Z,5.00
2019-01-27T06:25:26.336Z,5.00
2019-01-27T06:27:52.985Z,5.00
2019-01-27T06:30:24.077Z,5.00
2019-01-27T06:32:58.536Z,5.00
2019-01-27T06:35:27.369Z,5.00
2019-01-27T06:37:56.200Z,5.10
2019-01-27T06:40:25.068Z,5.10
2019-01-27T06:42:53.867Z,5.10
2019-01-27T06:45:22.703Z,5.10
2019-01-27T06:47:51.543Z,5.10
2019-01-27T06:50:20.392Z,5.10
2019-01-27T06:52:49.247Z,5.10
2019-01-27T06:55:18.088Z,5.10
2019-01-27T06:57:46.917Z,5.20
2019-01-27T07:00:22.297Z,5.20
2019-01-27T07:02:51.135Z,5.30
2019-01-27T07:05:19.975Z,5.30
2019-01-27T07:07:54.370Z,5.30
2019-01-27T07:10:24.102Z,5.30
2019-01-27T07:12:52.953Z,5.30
2019-01-27T07:15:27.299Z,5.30
2019-01-27T07:17:56.133Z,5.30
2019-01-27T07:20:25.725Z,5.30
2019-01-27T07:22:58.505Z,5.30
2019-01-27T07:25:27.319Z,5.30
2019-01-27T07:27:56.165Z,5.30
2019-01-27T07:30:26.775Z,5.30
2019-01-27T07:32:57.399Z,5.30
2019-01-27T07:35:30.029Z,5.40
2019-01-27T07:37:58.836Z,5.30
2019-01-27T07:40:28.525Z,5.30
2019-01-27T07:42:58.237Z,5.30
2019-01-27T07:45:28.894Z,5.30
2019-01-27T07:47:56.927Z,5.30
2019-01-27T07:50:25.783Z,5.30
2019-01-27T07:52:54.647Z,5.40
2019-01-27T07:55:23.468Z,5.30
2019-01-27T07:57:55.089Z,5.30
2019-01-27T08:00:23.930Z,5.30
2019-01-27T08:02:55.239Z,5.30
2019-01-27T08:05:24.885Z,5.30
2019-01-27T08:07:53.727Z,5.40
2019-01-27T08:10:22.558Z,5.40
2019-01-27T08:12:53.304Z,5.40
2019-01-27T08:15:22.154Z,5.40
2019-01-27T08:17:50.983Z,5.50
2019-01-27T08:20:19.835Z,5.50
2019-01-27T08:22:50.579Z,5.50
2019-01-27T08:25:23.145Z,5.60
2019-01-27T08:27:54.911Z,5.60
2019-01-27T08:30:27.481Z,5.60
2019-01-27T08:33:00.241Z,5.70
2019-01-27T08:35:32.885Z,5.70
2019-01-27T08:38:02.426Z,5.70
2019-01-27T08:40:31.262Z,5.80
2019-01-27T08:43:00.151Z,5.80
2019-01-27T08:45:31.715Z,5.90
2019-01-27T08:48:00.564Z,5.90
2019-01-27T08:50:29.403Z,5.90
2019-01-27T08:52:58.279Z,6.00
2019-01-27T08:55:27.178Z,5.90
2019-01-27T08:57:56.001Z,6.00
2019-01-27T09:00:24.829Z,6.00
2019-01-27T09:02:56.591Z,6.00
2019-01-27T09:05:25.437Z,6.00
2019-01-27T09:07:55.995Z,6.10
2019-01-27T09:10:29.748Z,6.10
2019-01-27T09:12:58.591Z,6.10
2019-01-27T09:15:30.343Z,6.20
2019-01-27T09:17:59.177Z,6.10
2019-01-27T09:20:29.763Z,6.10
2019-01-27T09:23:00.529Z,6.30
2019-01-27T09:25:29.359Z,6.30
2019-01-27T09:27:58.965Z,6.20
2019-01-27T09:30:33.361Z,6.30
2019-01-27T09:33:02.202Z,6.30
2019-01-27T09:35:31.084Z,6.30
2019-01-27T09:38:05.309Z,6.40
2019-01-27T09:40:34.187Z,6.40
2019-01-27T09:43:08.407Z,6.50
2019-01-27T09:45:38.985Z,6.60
2019-01-27T09:48:08.621Z,6.60
2019-01-27T09:50:39.423Z,6.60
2019-01-27T09:53:08.219Z,6.60
2019-01-27T09:55:39.841Z,6.60
2019-01-27T09:58:09.429Z,6.60
2019-01-27T10:00:38.271Z,6.70
2019-01-27T10:03:07.116Z,6.80
2019-01-27T10:05:36.828Z,6.80
2019-01-27T10:08:05.693Z,6.90
2019-01-27T10:10:36.303Z,6.90
2019-01-27T10:13:05.171Z,6.90
2019-01-27T10:15:34.014Z,6.90
2019-01-27T10:18:02.846Z,6.90
2019-01-27T10:20:37.114Z,6.90
2019-01-27T10:23:05.954Z,6.90
2019-01-27T10:25:40.252Z,6.90
2019-01-27T10:28:09.100Z,6.90
2019-01-27T10:30:38.720Z,6.90
2019-01-27T10:33:13.023Z,6.90
2019-01-27T10:35:43.635Z,6.80
2019-01-27T10:38:12.540Z,6.80
2019-01-27T10:40:41.350Z,6.80
2019-01-27T10:43:12.079Z,6.80
2019-01-27T10:45:40.933Z,6.80
2019-01-27T10:48:11.379Z,6.80
2019-01-27T10:50:43.005Z,6.80
2019-01-27T10:53:20.693Z,6.70
2019-01-27T10:55:44.268Z,6.80
2019-01-27T10:58:17.037Z,6.80
2019-01-27T11:00:51.371Z,6.70
2019-01-27T11:03:20.987Z,6.70
2019-01-27T11:05:49.813Z,6.60
2019-01-27T11:08:20.538Z,6.60
2019-01-27T11:10:49.367Z,6.60
2019-01-27T11:13:19.068Z,6.60
2019-01-27T11:15:51.789Z,6.60
2019-01-27T11:18:21.476Z,6.60
2019-01-27T11:20:52.136Z,6.60
2019-01-27T11:23:25.775Z,6.70
2019-01-27T11:26:00.004Z,6.80
2019-01-27T11:28:23.517Z,6.80
2019-01-27T11:30:57.821Z,6.90
2019-01-27T11:33:27.390Z,6.90
2019-01-27T11:35:57.003Z,7.00
2019-01-27T11:38:25.844Z,7.00
2019-01-27T11:40:54.678Z,7.10
2019-01-27T11:43:26.319Z,7.10
2019-01-27T11:46:00.542Z,7.00
2019-01-27T11:48:30.172Z,7.00
2019-01-27T11:50:59.026Z,7.10
2019-01-27T11:53:27.825Z,7.40
2019-01-27T11:55:56.675Z,7.50
2019-01-27T11:58:25.525Z,7.50
2019-01-27T12:00:55.117Z,7.70
2019-01-27T12:03:24.043Z,7.80
2019-01-27T12:05:52.868Z,7.80
2019-01-27T12:08:21.730Z,7.50
2019-01-27T12:10:50.631Z,7.50
2019-01-27T12:13:19.478Z,7.40
2019-01-27T12:15:48.303Z,7.40
2019-01-27T12:18:17.171Z,7.40
2019-01-27T12:20:46.747Z,7.40
2019-01-27T12:23:15.590Z,7.40
2019-01-27T12:25:44.426Z,7.40
2019-01-27T12:28:14.015Z,7.30
2019-01-27T12:30:42.858Z,7.30
2019-01-27T12:33:11.726Z,7.30
2019-01-27T12:35:40.553Z,7.30
2019-01-27T12:38:09.403Z,7.40
2019-01-27T12:40:38.259Z,7.40
2019-01-27T12:43:07.084Z,7.50
2019-01-27T12:45:35.933Z,7.50
2019-01-27T12:48:04.779Z,7.60
2019-01-27T12:50:33.658Z,7.60
2019-01-27T12:53:02.509Z,7.70
2019-01-27T12:55:32.095Z,7.60
2019-01-27T12:58:00.942Z,7.70
2019-01-27T13:00:33.449Z,7.70
2019-01-27T13:03:02.265Z,7.70
2019-01-27T13:05:31.853Z,7.70
2019-01-27T13:08:00.711Z,7.80
2019-01-27T13:10:29.547Z,7.80
2019-01-27T13:12:58.397Z,7.80
2019-01-27T13:15:27.249Z,7.80
2019-01-27T13:17:56.844Z,7.70
2019-01-27T13:20:26.442Z,7.80
2019-01-27T13:22:55.282Z,7.90
2019-01-27T13:25:24.123Z,7.80
2019-01-27T13:27:53.709Z,7.80
2019-01-27T13:30:23.443Z,7.90
2019-01-27T13:32:52.243Z,7.90
2019-01-27T13:35:21.093Z,7.90
2019-01-27T13:37:49.990Z,7.90
2019-01-27T13:40:21.725Z,7.90
2019-01-27T13:42:50.584Z,7.80
2019-01-27T13:45:21.251Z,7.80
2019-01-27T13:47:50.106Z,7.80
2019-01-27T13:50:19.015Z,7.80
2019-01-27T13:52:47.817Z,7.70
2019-01-27T13:55:17.587Z,7.70
2019-01-27T13:57:46.450Z,7.70
2019-01-27T14:02:53.779Z,7.80
2019-01-27T14:05:22.614Z,7.70
2019-01-27T14:07:51.442Z,7.70
2019-01-27T14:10:26.157Z,7.70
2019-01-27T14:12:54.985Z,7.80
2019-01-27T14:15:25.728Z,7.70
2019-01-27T14:17:54.563Z,7.70
2019-01-27T14:20:23.393Z,7.70
2019-01-27T14:22:52.217Z,7.70
2019-01-27T14:25:21.063Z,7.70
2019-01-27T14:27:52.061Z,7.60
2019-01-27T14:30:21.293Z,7.60
2019-01-27T14:32:50.917Z,7.60
2019-01-27T14:35:20.513Z,7.70
2019-01-27T14:37:50.098Z,7.70
2019-01-27T14:42:57.411Z,7.80
2019-01-27T14:45:26.253Z,7.80
2019-01-27T14:47:55.080Z,7.70
2019-01-27T14:50:24.891Z,7.80
2019-01-27T14:55:23.909Z,7.80
2019-01-27T14:57:53.508Z,7.70
2019-01-27T15:00:24.145Z,7.80
2019-01-27T15:02:52.982Z,7.80
2019-01-27T15:05:21.831Z,7.70
2019-01-27T15:07:51.418Z,7.70
2019-01-27T15:10:20.258Z,7.80
2019-01-27T15:12:49.089Z,7.80
2019-01-27T15:15:18.876Z,7.80
2019-01-27T15:17:47.712Z,7.70
2019-01-27T15:20:18.230Z,7.70
2019-01-27T15:22:47.077Z,7.60
2019-01-27T15:25:15.942Z,7.60
2019-01-27T15:27:44.730Z,7.60
2019-01-27T15:30:14.350Z,7.50
2019-01-27T15:32:43.190Z,7.50
2019-01-27T15:35:12.043Z,7.50
2019-01-27T15:37:40.881Z,7.40
2019-01-27T15:40:10.514Z,7.40
2019-01-27T15:42:39.357Z,7.50
2019-01-27T15:47:46.691Z,7.40
2019-01-27T15:50:17.266Z,7.40
2019-01-27T15:52:46.180Z,7.40
2019-01-27T15:55:15.039Z,7.40
2019-01-27T15:57:43.861Z,7.40
2019-01-27T16:00:12.691Z,7.40
2019-01-27T16:02:41.546Z,7.30
2019-01-27T16:05:11.133Z,7.30
2019-01-27T16:07:39.965Z,7.30
2019-01-27T16:10:09.553Z,7.30
2019-01-27T16:12:38.398Z,7.20
2019-01-27T16:15:08.190Z,7.20
2019-01-27T16:17:37.022Z,7.20
2019-01-27T16:20:07.240Z,7.10
2019-01-27T16:22:36.089Z,7.10
2019-01-27T16:25:05.670Z,7.10
2019-01-27T16:27:34.499Z,7.10
2019-01-27T16:30:03.333Z,7.10
2019-01-27T16:32:32.174Z,7.10
2019-01-27T16:35:01.024Z,7.10
2019-01-27T16:37:29.879Z,7.10
2019-01-27T16:39:58.713Z,7.10
2019-01-27T16:42:28.274Z,7.00
2019-01-27T16:44:57.108Z,7.00
2019-01-27T16:47:26.706Z,7.00
2019-01-27T16:49:55.553Z,7.00
2019-01-27T16:52:24.391Z,7.10
2019-01-27T16:54:53.230Z,7.00
2019-01-27T16:57:22.076Z,7.00
2019-01-27T16:59:50.913Z,7.00
2019-01-27T17:02:19.782Z,7.00
2019-01-27T17:04:48.593Z,7.00
2019-01-27T17:07:17.426Z,6.90
2019-01-27T17:09:47.013Z,6.90
2019-01-27T17:12:15.835Z,6.90
2019-01-27T17:14:44.674Z,6.90
2019-01-27T17:17:13.508Z,6.80
2019-01-27T17:19:42.542Z,6.80
2019-01-27T17:22:11.363Z,6.80
2019-01-27T17:24:40.212Z,6.80
2019-01-27T17:27:09.032Z,6.80
2019-01-27T17:29:37.896Z,6.80
2019-01-27T17:32:06.754Z,6.80
2019-01-27T17:34:35.595Z,6.80
2019-01-27T17:37:04.502Z,6.80
2019-01-27T17:39:33.348Z,6.70
2019-01-27T17:42:02.213Z,6.70
2019-01-27T17:44:31.061Z,6.70
2019-01-27T17:47:00.732Z,6.70
2019-01-27T17:49:29.568Z,6.60
2019-01-27T17:51:58.391Z,6.60
2019-01-27T17:54:27.236Z,6.60
2019-01-27T17:56:56.054Z,6.60
2019-01-27T17:59:25.641Z,6.50
2019-01-27T18:01:54.494Z,6.50
2019-01-27T18:04:28.188Z,6.50
2019-01-27T18:06:58.873Z,6.50
2019-01-27T18:09:31.457Z,6.50
2019-01-27T18:12:01.159Z,6.40
2019-01-27T18:14:30.048Z,6.40
2019-01-27T18:16:58.880Z,6.40
2019-01-27T18:19:27.713Z,6.40
2019-01-27T18:21:56.531Z,6.40
2019-01-27T18:24:25.368Z,6.40
2019-01-27T18:26:54.194Z,6.30
2019-01-27T18:29:23.045Z,6.30
2019-01-27T18:31:51.906Z,6.30
2019-01-27T18:34:20.754Z,6.30
2019-01-27T18:36:49.606Z,6.30
2019-01-27T18:39:18.448Z,6.30
2019-01-27T18:41:47.303Z,6.30
2019-01-27T18:44:16.123Z,6.20
2019-01-27T18:46:45.727Z,6.20
2019-01-27T18:49:14.546Z,6.20
2019-01-27T18:51:43.377Z,6.20
2019-01-27T18:54:17.701Z,6.10
2019-01-27T18:56:51.368Z,6.10
2019-01-27T18:59:24.084Z,6.00
2019-01-27T19:01:52.985Z,6.00
2019-01-27T19:04:23.389Z,6.00
2019-01-27T19:06:52.238Z,5.90
2019-01-27T19:09:21.950Z,5.90
2019-01-27T19:11:50.892Z,5.90
2019-01-27T19:16:56.082Z,6.00
2019-01-27T19:19:25.633Z,5.90
2019-01-27T19:21:55.386Z,6.00
2019-01-27T19:24:25.848Z,5.90
2019-01-27T19:26:56.549Z,5.90
2019-01-27T19:29:25.388Z,5.90
2019-01-27T19:31:54.223Z,5.90
2019-01-27T19:34:24.563Z,5.80
2019-01-27T19:36:53.513Z,5.90
2019-01-27T19:39:25.267Z,5.80
2019-01-27T19:41:54.187Z,5.80
2019-01-27T19:44:23.745Z,5.70
2019-01-27T19:46:55.447Z,5.70
2019-01-27T19:49:24.296Z,5.70
2019-01-27T19:51:53.139Z,5.60
2019-01-27T19:54:22.845Z,5.60
2019-01-27T19:56:53.768Z,5.60
2019-01-27T19:59:25.132Z,5.50
2019-01-27T20:01:58.800Z,5.60
2019-01-27T20:04:28.508Z,5.60
2019-01-27T20:06:58.200Z,5.60
2019-01-27T20:09:28.752Z,5.50
2019-01-27T20:11:59.264Z,5.50
2019-01-27T20:14:31.883Z,5.50
2019-01-27T20:17:02.903Z,5.50
2019-01-27T20:19:35.357Z,5.50
2019-01-27T20:22:05.049Z,5.40
2019-01-27T20:24:36.659Z,5.40
2019-01-27T20:27:06.446Z,5.40
2019-01-27T20:29:35.340Z,5.30
2019-01-27T20:32:04.226Z,5.20
2019-01-27T20:34:35.694Z,5.10
2019-01-27T20:37:10.184Z,5.00
2019-01-27T20:39:40.823Z,5.00
2019-01-27T20:42:09.721Z,5.00
2019-01-27T20:44:39.302Z,5.00
2019-01-27T20:47:08.998Z,4.90
2019-01-27T20:49:38.749Z,4.80
2019-01-27T20:52:07.596Z,4.80
2019-01-27T20:54:37.583Z,4.80
2019-01-27T20:57:07.244Z,4.80
2019-01-27T20:59:36.094Z,4.70
2019-01-27T21:02:04.921Z,4.70
2019-01-27T21:04:34.524Z,4.70
2019-01-27T21:07:07.116Z,4.70
2019-01-27T21:09:37.730Z,4.60
2019-01-27T21:12:06.579Z,4.60
2019-01-27T21:14:36.377Z,4.60
2019-01-27T21:17:08.814Z,4.50
2019-01-27T21:19:37.672Z,4.50
2019-01-27T21:22:06.466Z,4.50
2019-01-27T21:24:35.291Z,4.40
2019-01-27T21:27:06.701Z,4.40
2019-01-27T21:29:33.701Z,4.50
2019-01-27T21:32:02.571Z,4.40
2019-01-27T21:34:32.150Z,4.40
2019-01-27T21:37:00.981Z,4.30
2019-01-27T21:39:30.548Z,4.40
2019-01-27T21:41:59.372Z,4.30
2019-01-27T21:44:28.974Z,4.30
2019-01-27T21:46:57.812Z,4.30
2019-01-27T21:49:26.631Z,4.30
2019-01-27T21:51:55.458Z,4.20
2019-01-27T21:54:24.300Z,4.10
2019-01-27T21:56:53.131Z,4.20
2019-01-27T21:59:21.969Z,4.20
2019-01-27T22:01:50.813Z,4.10
2019-01-27T22:04:19.627Z,4.10
2019-01-27T22:06:48.448Z,4.10
2019-01-27T22:09:17.278Z,4.20
2019-01-27T22:11:46.106Z,4.20
2019-01-27T22:14:14.942Z,4.20
2019-01-27T22:16:43.771Z,4.20
2019-01-27T22:19:12.606Z,4.20
2019-01-27T22:21:41.442Z,4.30
2019-01-27T22:24:10.263Z,4.30
2019-01-27T22:26:39.098Z,4.30
2019-01-27T22:29:07.931Z,4.30
2019-01-27T22:31:36.975Z,4.30
2019-01-27T22:34:06.204Z,4.30
2019-01-27T22:36:34.490Z,4.30
2019-01-27T22:39:07.233Z,4.40
2019-01-27T22:41:36.103Z,4.30
2019-01-27T22:44:04.912Z,4.30
2019-01-27T22:46:33.747Z,4.30
2019-01-27T22:49:02.589Z,4.30
2019-01-27T22:51:31.416Z,4.30
2019-01-27T22:54:00.248Z,4.20
2019-01-27T22:56:29.092Z,4.20
2019-01-27T22:58:57.923Z,4.20
2019-01-27T23:01:26.772Z,4.20
2019-01-27T23:03:55.614Z,4.20
2019-01-27T23:06:25.179Z,4.20
2019-01-27T23:08:54.002Z,4.20
2019-01-27T23:11:23.584Z,4.20
2019-01-27T23:13:52.406Z,4.20
2019-01-27T23:16:21.991Z,4.20
2019-01-27T23:18:50.820Z,4.20
2019-01-27T23:21:19.672Z,4.20
2019-01-27T23:23:49.230Z,4.20
2019-01-27T23:26:18.049Z,4.20
2019-01-27T23:28:46.897Z,4.10
2019-01-27T23:31:15.724Z,4.10
2019-01-27T23:33:44.554Z,4.10
2019-01-27T23:36:13.374Z,4.10
2019-01-27T23:38:42.206Z,4.10
2019-01-27T23:41:11.112Z,4.00
2019-01-27T23:43:39.930Z,4.00
2019-01-27T23:46:08.746Z,4.00
2019-01-27T23:48:37.579Z,3.90
2019-01-27T23:51:07.142Z,3.80
2019-01-27T23:53:35.959Z,3.90
2019-01-27T23:56:04.800Z,3.90
2019-01-27T23:58:33.634Z,3.90
